aviador You're here:

LBGO Decoded Metar

GORNA ORECHOVICA in BULGARIA
Report Time2017-09-23 18:00:00
UTC Time2017-09-23 18:23:54
Flight Rules vfr VFR
Wind250° at 03 kt
W.Decomp.*RWY 27: 2.7 kt HW 1.2 kt LCW
W.Rank250° ranks 20
Current wind is below 250° avg. (4.8)
Visibility9999 m
Phenomena:N/A
Clouds:Few 077 Hf
Expected CloudBase > 2,000 ft AGL from Temp-Dew spread
CeilingNone
Temp13°C (ISA -1)
Dew Point08°C (72% RH)
AAT11.5°C
QNH1019 hPa
Density Alt59 ft
Elevation285 ft
Report Wrong Elevation
Raw Report
LBGO 231800Z AUTO 25003KT 9999 FEW077/// 13/08 Q1019=

Extra information for LBGO:More info

Metar Taf Metar & Taf Last 4 Metars F.Rules Stats Wind Profile Meteogram Temp Stats Airport Information Weather charts Add Link Nearby VenuesMetar ALERT Operation Metar Decoded Social comments